createdAt,value
2023-03-20T00:02:30.718Z,12.00
2023-03-20T00:05:21.485Z,12.30
2023-03-20T00:08:09.626Z,12.00
2023-03-20T00:10:56.330Z,11.80
2023-03-20T00:13:43.079Z,11.50
2023-03-20T00:16:49.350Z,11.40
2023-03-20T00:19:36.081Z,11.50
2023-03-20T00:22:23.387Z,11.70
2023-03-20T00:25:23.811Z,12.00
2023-03-20T00:28:41.215Z,11.80
2023-03-20T00:31:33.524Z,11.70
2023-03-20T00:34:23.841Z,11.70
2023-03-20T00:37:12.092Z,11.60
2023-03-20T00:39:58.488Z,11.60
2023-03-20T00:42:57.281Z,11.40
2023-03-20T00:45:45.155Z,11.60
2023-03-20T00:48:32.937Z,12.00
2023-03-20T00:51:19.516Z,11.80
2023-03-20T00:54:16.089Z,11.50
2023-03-20T00:57:06.853Z,11.60
2023-03-20T00:59:57.274Z,11.80
2023-03-20T01:02:43.557Z,11.60
2023-03-20T01:08:29.545Z,11.30
2023-03-20T01:11:23.567Z,11.50
2023-03-20T01:14:16.109Z,11.50
2023-03-20T01:17:02.499Z,11.40
2023-03-20T01:19:49.452Z,11.30
2023-03-20T01:22:35.832Z,11.30
2023-03-20T01:25:21.790Z,11.60
2023-03-20T01:28:24.386Z,11.50
2023-03-20T01:31:11.987Z,11.40
2023-03-20T01:33:59.485Z,11.40
2023-03-20T01:36:50.982Z,11.30
2023-03-20T01:39:37.956Z,11.30
2023-03-20T01:42:25.257Z,11.50
2023-03-20T01:45:17.345Z,11.50
2023-03-20T01:48:18.966Z,11.90
2023-03-20T01:51:05.747Z,12.10
2023-03-20T01:53:58.248Z,11.90
2023-03-20T01:56:54.179Z,12.20
2023-03-20T01:59:52.635Z,12.00
2023-03-20T02:02:40.673Z,11.60
2023-03-20T02:05:27.967Z,11.60
2023-03-20T02:08:25.728Z,11.20
2023-03-20T02:11:13.039Z,11.00
2023-03-20T02:14:02.230Z,10.90
2023-03-20T02:16:56.429Z,11.10
2023-03-20T02:20:46.543Z,11.10
2023-03-20T02:23:48.575Z,11.00
2023-03-20T02:27:03.103Z,11.00
2023-03-20T02:30:11.700Z,11.10
2023-03-20T02:33:42.535Z,11.30
2023-03-20T02:36:47.897Z,11.30
2023-03-20T02:40:00.240Z,11.20
2023-03-20T02:43:12.119Z,11.20
2023-03-20T02:46:12.889Z,11.20
2023-03-20T02:49:32.651Z,11.20
2023-03-20T02:52:21.593Z,11.40
2023-03-20T02:55:36.189Z,11.40
2023-03-20T02:58:36.893Z,11.20
2023-03-20T03:01:52.255Z,11.20
2023-03-20T03:04:50.118Z,11.20
2023-03-20T03:07:37.701Z,11.30
2023-03-20T03:10:30.476Z,11.30
2023-03-20T03:13:21.957Z,11.40
2023-03-20T03:16:16.114Z,11.50
2023-03-20T03:19:18.640Z,12.00
2023-03-20T03:22:06.088Z,11.90
2023-03-20T03:24:54.807Z,11.80
2023-03-20T03:27:46.078Z,11.60
2023-03-20T03:30:37.153Z,11.50
2023-03-20T03:33:29.744Z,11.90
2023-03-20T03:36:53.623Z,12.10
2023-03-20T03:39:54.192Z,12.30
2023-03-20T03:42:44.571Z,11.70
2023-03-20T03:45:47.769Z,11.60
2023-03-20T03:48:47.029Z,11.70
2023-03-20T03:51:38.490Z,11.90
2023-03-20T03:54:38.425Z,11.90
2023-03-20T03:57:51.050Z,11.60
2023-03-20T04:00:42.520Z,11.60
2023-03-20T04:03:36.870Z,11.40
2023-03-20T04:06:22.856Z,11.50
2023-03-20T04:09:11.247Z,11.40
2023-03-20T04:11:57.276Z,11.20
2023-03-20T04:14:47.395Z,11.20
2023-03-20T04:17:34.233Z,9.40
2023-03-20T04:20:21.247Z,11.10
2023-03-20T04:23:07.898Z,11.10
2023-03-20T04:25:55.818Z,11.10
2023-03-20T04:28:42.051Z,11.70
2023-03-20T04:31:57.592Z,11.00
2023-03-20T04:35:05.047Z,11.40
2023-03-20T04:38:06.498Z,11.30
2023-03-20T04:40:54.774Z,11.50
2023-03-20T04:43:41.460Z,11.60
2023-03-20T04:46:27.647Z,11.60
2023-03-20T04:49:14.361Z,11.30
2023-03-20T04:52:01.364Z,11.30
2023-03-20T04:54:56.404Z,11.30
2023-03-20T04:57:43.554Z,11.40
2023-03-20T05:00:46.328Z,11.60
2023-03-20T05:03:32.580Z,11.90
2023-03-20T05:06:19.043Z,12.00
2023-03-20T05:09:06.260Z,11.80
2023-03-20T05:11:54.462Z,12.20
2023-03-20T05:15:01.330Z,12.70
2023-03-20T05:18:13.848Z,12.30
2023-03-20T05:21:26.155Z,12.00
2023-03-20T05:24:31.735Z,12.40
2023-03-20T05:27:24.041Z,12.10
2023-03-20T05:30:29.426Z,12.00
2023-03-20T05:33:35.104Z,11.70
2023-03-20T05:36:32.094Z,11.70
2023-03-20T05:39:38.561Z,11.80
2023-03-20T05:42:45.536Z,11.90
2023-03-20T05:45:47.171Z,11.90
2023-03-20T05:49:02.851Z,12.20
2023-03-20T05:52:07.423Z,12.10
2023-03-20T05:55:19.705Z,12.20
2023-03-20T05:58:21.052Z,12.70
2023-03-20T06:01:25.967Z,12.80
2023-03-20T06:04:24.665Z,12.90
2023-03-20T06:07:44.204Z,12.70
2023-03-20T06:10:43.907Z,12.60
2023-03-20T06:13:34.847Z,12.80
2023-03-20T06:16:22.904Z,12.90
2023-03-20T06:19:10.548Z,12.80
2023-03-20T06:22:09.397Z,12.70
2023-03-20T06:25:04.261Z,12.80
2023-03-20T06:28:06.669Z,13.50
2023-03-20T06:30:56.239Z,12.70
2023-03-20T06:33:44.538Z,12.70
2023-03-20T06:36:32.295Z,12.50
2023-03-20T06:39:25.109Z,12.30
2023-03-20T06:42:15.697Z,12.40
2023-03-20T06:45:03.117Z,12.70
2023-03-20T06:48:24.510Z,12.70
2023-03-20T06:51:11.547Z,12.80
2023-03-20T06:54:07.778Z,12.90
2023-03-20T06:56:54.021Z,12.80
2023-03-20T06:59:40.518Z,12.70
2023-03-20T07:02:26.586Z,12.60
2023-03-20T07:05:13.263Z,12.50
2023-03-20T07:08:00.117Z,12.60
2023-03-20T07:10:45.669Z,12.70
2023-03-20T07:13:32.924Z,12.60
2023-03-20T07:16:26.300Z,12.00
2023-03-20T07:19:13.722Z,11.70
2023-03-20T07:22:05.214Z,12.10
2023-03-20T07:24:57.912Z,12.40
2023-03-20T07:27:50.547Z,12.60
2023-03-20T07:30:39.697Z,12.50
2023-03-20T07:33:26.058Z,12.30
2023-03-20T07:36:11.811Z,12.40
2023-03-20T07:38:59.201Z,12.30
2023-03-20T07:41:47.017Z,12.40
2023-03-20T07:44:43.774Z,12.50
2023-03-20T07:47:30.595Z,12.50
2023-03-20T07:50:17.201Z,12.50
2023-03-20T07:53:03.598Z,12.10
2023-03-20T07:55:49.581Z,11.90
2023-03-20T07:58:36.260Z,11.90
2023-03-20T08:01:22.212Z,12.30
2023-03-20T08:04:08.348Z,12.50
2023-03-20T08:06:55.676Z,12.50
2023-03-20T08:09:42.228Z,12.10
2023-03-20T08:12:28.869Z,12.00
2023-03-20T08:15:15.469Z,12.00
2023-03-20T08:18:01.595Z,11.90
2023-03-20T08:20:47.690Z,12.20
2023-03-20T08:23:33.763Z,12.50
2023-03-20T08:26:19.433Z,12.60
2023-03-20T08:29:05.505Z,12.70
2023-03-20T08:31:51.272Z,12.90
2023-03-20T08:34:37.173Z,12.60
2023-03-20T08:37:23.611Z,12.90
2023-03-20T08:40:10.961Z,13.00
2023-03-20T08:42:58.248Z,13.00
2023-03-20T08:45:46.075Z,13.20
2023-03-20T08:48:32.473Z,13.20
2023-03-20T08:51:18.367Z,13.50
2023-03-20T08:54:04.985Z,13.20
2023-03-20T08:56:51.641Z,12.90
2023-03-20T08:59:37.441Z,13.10
2023-03-20T09:02:24.973Z,13.40
2023-03-20T09:05:11.476Z,12.90
2023-03-20T09:07:57.885Z,13.10
2023-03-20T09:10:43.948Z,13.00
2023-03-20T09:13:30.602Z,12.80
2023-03-20T09:16:16.777Z,12.60
2023-03-20T09:19:03.195Z,12.30
2023-03-20T09:21:49.219Z,12.20
2023-03-20T09:24:36.078Z,12.60
2023-03-20T09:27:22.892Z,12.90
2023-03-20T09:30:10.951Z,12.80
2023-03-20T09:32:57.745Z,12.70
2023-03-20T09:35:44.088Z,12.90
2023-03-20T09:38:29.984Z,12.70
2023-03-20T09:41:27.573Z,12.70
2023-03-20T09:44:55.764Z,12.90
2023-03-20T09:48:07.740Z,13.50
2023-03-20T09:51:36.573Z,13.80
2023-03-20T09:54:53.044Z,13.20
2023-03-20T09:57:45.784Z,13.50
2023-03-20T10:00:35.060Z,14.30
2023-03-20T10:03:43.253Z,14.80
2023-03-20T10:06:29.607Z,15.00
2023-03-20T10:09:21.770Z,15.50
2023-03-20T10:12:26.493Z,15.70
2023-03-20T10:15:49.249Z,15.80
2023-03-20T10:18:41.399Z,15.80
2023-03-20T10:21:45.222Z,15.80
2023-03-20T10:24:47.373Z,15.60
2023-03-20T10:27:46.543Z,15.30
2023-03-20T10:30:39.746Z,14.90
2023-03-20T10:34:02.340Z,15.20
2023-03-20T10:37:01.771Z,15.60
2023-03-20T10:40:10.478Z,15.30
2023-03-20T10:43:01.680Z,14.80
2023-03-20T10:45:52.589Z,14.60
2023-03-20T10:48:44.606Z,14.80
2023-03-20T10:51:45.513Z,15.00
2023-03-20T10:54:39.738Z,15.20
2023-03-20T10:57:29.411Z,15.60
2023-03-20T11:00:21.453Z,16.00
2023-03-20T11:03:17.272Z,15.80
2023-03-20T11:06:27.932Z,15.80
2023-03-20T11:09:21.120Z,15.60
2023-03-20T11:12:20.010Z,17.30
2023-03-20T11:15:22.749Z,19.50
2023-03-20T11:18:15.343Z,21.70
2023-03-20T11:21:03.083Z,23.60
2023-03-20T11:23:49.935Z,24.90
2023-03-20T11:26:40.773Z,25.60
2023-03-20T11:29:35.212Z,25.90
2023-03-20T11:32:49.151Z,25.70
2023-03-20T11:35:36.362Z,23.70
2023-03-20T11:38:23.010Z,23.40
2023-03-20T11:41:18.904Z,21.30
2023-03-20T11:44:11.321Z,18.50
2023-03-20T11:47:26.262Z,17.70
2023-03-20T11:50:33.016Z,16.70
2023-03-20T11:53:33.065Z,16.60
2023-03-20T11:56:27.990Z,17.00
2023-03-20T11:59:18.660Z,17.20
2023-03-20T12:02:19.658Z,18.20
2023-03-20T12:05:42.563Z,18.70
2023-03-20T12:08:31.306Z,17.90
2023-03-20T12:11:42.182Z,17.90
2023-03-20T12:15:00.242Z,16.80
2023-03-20T12:18:01.965Z,16.90
2023-03-20T12:21:13.422Z,17.20
2023-03-20T12:24:19.922Z,16.30
2023-03-20T12:27:28.311Z,16.90
2023-03-20T12:30:25.832Z,17.20
2023-03-20T12:33:18.628Z,16.90
2023-03-20T12:36:07.590Z,16.40
2023-03-20T12:38:53.935Z,16.40
2023-03-20T12:42:18.878Z,16.70
2023-03-20T12:45:23.731Z,16.60
2023-03-20T12:48:31.733Z,16.60
2023-03-20T12:51:36.656Z,16.40
2023-03-20T12:54:39.171Z,16.10
2023-03-20T12:57:33.927Z,16.10
2023-03-20T13:00:22.741Z,17.00
2023-03-20T13:03:17.974Z,17.40
2023-03-20T13:06:15.657Z,16.30
2023-03-20T13:09:29.529Z,15.90
2023-03-20T13:12:32.128Z,16.30
2023-03-20T13:15:59.808Z,16.50
2023-03-20T13:18:51.168Z,16.70
2023-03-20T13:22:06.328Z,16.50
2023-03-20T13:25:02.799Z,17.30
2023-03-20T13:28:27.552Z,17.10
2023-03-20T13:31:27.420Z,17.30
2023-03-20T13:34:28.616Z,17.50
2023-03-20T13:37:46.321Z,17.60
2023-03-20T13:40:38.322Z,16.90
2023-03-20T13:43:31.483Z,15.70
2023-03-20T13:46:22.098Z,16.40
2023-03-20T13:49:25.969Z,16.40
2023-03-20T13:52:20.020Z,16.30
2023-03-20T13:55:31.106Z,16.10
2023-03-20T13:58:35.631Z,16.70
2023-03-20T14:02:10.121Z,17.20
2023-03-20T14:05:10.888Z,17.60
2023-03-20T14:07:58.879Z,17.50
2023-03-20T14:10:45.388Z,16.80
2023-03-20T14:13:32.261Z,17.10
2023-03-20T14:16:20.361Z,17.50
2023-03-20T14:19:35.044Z,16.80
2023-03-20T14:22:27.788Z,16.60
2023-03-20T14:25:21.491Z,16.80
2023-03-20T14:28:13.144Z,16.60
2023-03-20T14:31:34.151Z,16.10
2023-03-20T14:34:26.901Z,16.20
2023-03-20T14:37:31.630Z,16.40
2023-03-20T14:40:20.400Z,16.60
2023-03-20T14:43:21.712Z,16.50
2023-03-20T14:46:39.205Z,16.80
2023-03-20T14:49:42.966Z,16.20
2023-03-20T14:53:00.541Z,16.10
2023-03-20T14:55:49.171Z,16.20
2023-03-20T14:58:53.738Z,16.50
2023-03-20T15:01:39.668Z,16.50
2023-03-20T15:04:35.173Z,16.10
2023-03-20T15:07:28.445Z,16.40
2023-03-20T15:10:14.732Z,16.80
2023-03-20T15:13:04.144Z,17.10
2023-03-20T15:15:59.216Z,16.80
2023-03-20T15:18:56.004Z,16.50
2023-03-20T15:21:46.098Z,16.50
2023-03-20T15:24:31.875Z,16.50
2023-03-20T15:27:18.417Z,16.70
2023-03-20T15:30:04.871Z,17.00
2023-03-20T15:32:54.357Z,17.10
2023-03-20T15:35:40.434Z,17.00
2023-03-20T15:38:33.246Z,17.10
2023-03-20T15:41:32.236Z,17.40
2023-03-20T15:44:25.014Z,17.30
2023-03-20T15:47:11.166Z,17.20
2023-03-20T15:50:03.959Z,16.90
2023-03-20T15:52:54.497Z,16.90
2023-03-20T15:55:40.642Z,17.00
2023-03-20T15:58:28.289Z,16.60
2023-03-20T16:01:21.052Z,16.70
2023-03-20T16:04:07.334Z,16.70
2023-03-20T16:07:01.166Z,16.60
2023-03-20T16:09:51.349Z,16.90
2023-03-20T16:12:37.748Z,16.10
2023-03-20T16:15:31.799Z,15.80
2023-03-20T16:18:19.254Z,15.80
2023-03-20T16:21:09.960Z,15.70
2023-03-20T16:23:58.487Z,15.70
2023-03-20T16:26:48.608Z,15.70
2023-03-20T16:29:34.942Z,15.70
2023-03-20T16:32:40.026Z,15.80
2023-03-20T16:35:31.718Z,15.60
2023-03-20T16:38:26.376Z,15.70
2023-03-20T16:41:37.616Z,15.70
2023-03-20T16:44:30.591Z,15.60
2023-03-20T16:47:24.068Z,15.50
2023-03-20T16:50:15.456Z,15.50
2023-03-20T16:53:01.965Z,15.40
2023-03-20T16:55:50.483Z,15.50
2023-03-20T16:58:39.990Z,15.50
2023-03-20T17:01:28.768Z,15.60
2023-03-20T17:04:21.122Z,15.70
2023-03-20T17:07:16.115Z,16.00
2023-03-20T17:10:25.317Z,16.20
2023-03-20T17:13:11.343Z,16.20
2023-03-20T17:15:57.465Z,16.10
2023-03-20T17:18:46.947Z,16.00
2023-03-20T17:21:33.141Z,16.10
2023-03-20T17:24:19.298Z,16.10
2023-03-20T17:27:05.626Z,16.20
2023-03-20T17:29:51.706Z,16.00
2023-03-20T17:32:38.204Z,15.60
2023-03-20T17:35:24.277Z,15.50
2023-03-20T17:38:21.845Z,15.50
2023-03-20T17:41:13.728Z,15.50
2023-03-20T17:44:00.897Z,15.60
2023-03-20T17:46:57.710Z,15.40
2023-03-20T17:49:45.587Z,15.30
2023-03-20T17:52:31.978Z,15.40
2023-03-20T17:55:17.979Z,15.20
2023-03-20T17:58:04.212Z,15.00
2023-03-20T18:00:52.037Z,14.90
2023-03-20T18:03:38.547Z,14.90
2023-03-20T18:06:30.846Z,15.00
2023-03-20T18:09:17.917Z,15.00
2023-03-20T18:12:04.479Z,14.90
2023-03-20T18:14:50.839Z,14.80
2023-03-20T18:17:36.991Z,14.70
2023-03-20T18:20:32.533Z,14.50
2023-03-20T18:23:18.624Z,14.60
2023-03-20T18:26:04.788Z,14.80
2023-03-20T18:28:53.331Z,14.80
2023-03-20T18:31:42.346Z,14.80
2023-03-20T18:34:29.990Z,14.60
2023-03-20T18:37:16.496Z,14.40
2023-03-20T18:40:03.682Z,14.40
2023-03-20T18:42:49.850Z,14.40
2023-03-20T18:45:35.388Z,14.80
2023-03-20T18:48:21.061Z,15.00
2023-03-20T18:51:07.074Z,15.00
2023-03-20T18:53:53.435Z,14.90
2023-03-20T18:56:39.618Z,14.80
2023-03-20T18:59:27.189Z,14.90
2023-03-20T19:02:13.037Z,14.90
2023-03-20T19:04:59.250Z,14.70
2023-03-20T19:07:46.263Z,14.40
2023-03-20T19:10:35.964Z,14.10
2023-03-20T19:13:22.134Z,14.20
2023-03-20T19:16:19.738Z,14.30
2023-03-20T19:19:07.165Z,14.20
2023-03-20T19:21:53.832Z,14.00
2023-03-20T19:24:39.884Z,14.00
2023-03-20T19:27:26.336Z,14.00
2023-03-20T19:30:40.016Z,14.10
2023-03-20T19:33:26.226Z,14.20
2023-03-20T19:36:26.196Z,14.30
2023-03-20T19:39:15.048Z,14.40
2023-03-20T19:42:15.569Z,14.50
2023-03-20T19:45:08.108Z,14.50
2023-03-20T19:47:54.775Z,14.50
2023-03-20T19:50:42.304Z,14.20
2023-03-20T19:53:30.525Z,14.10
2023-03-20T19:56:18.368Z,14.00
2023-03-20T19:59:05.971Z,13.90
2023-03-20T20:01:55.027Z,13.80
2023-03-20T20:04:41.525Z,13.70
2023-03-20T20:08:06.199Z,13.70
2023-03-20T20:10:40.640Z,13.70
2023-03-20T20:13:32.830Z,13.70
2023-03-20T20:16:18.849Z,13.50
2023-03-20T20:19:05.120Z,13.30
2023-03-20T20:24:57.996Z,13.10
2023-03-20T20:27:45.053Z,13.20
2023-03-20T20:38:30.705Z,12.90
2023-03-20T20:40:43.669Z,12.90
2023-03-20T20:43:59.559Z,12.90
2023-03-20T20:46:36.659Z,12.80
2023-03-20T20:49:22.512Z,12.60
2023-03-20T20:52:09.393Z,12.50
2023-03-20T20:54:55.425Z,12.60
2023-03-20T20:57:41.307Z,12.50
2023-03-20T21:00:45.370Z,12.50
2023-03-20T21:03:33.199Z,12.50
2023-03-20T21:06:21.949Z,12.40
2023-03-20T21:09:08.001Z,12.20
2023-03-20T21:11:53.556Z,12.20
2023-03-20T21:14:39.857Z,12.10
2023-03-20T21:17:27.097Z,12.10
2023-03-20T21:20:13.226Z,12.00
2023-03-20T21:22:59.479Z,12.10
2023-03-20T21:25:47.874Z,12.00
2023-03-20T21:28:34.620Z,11.80
2023-03-20T21:31:28.594Z,11.90
2023-03-20T21:34:16.798Z,11.90
2023-03-20T21:38:01.126Z,11.90
2023-03-20T21:40:10.057Z,12.00
2023-03-20T21:42:58.037Z,12.10
2023-03-20T21:49:43.110Z,11.90
2023-03-20T21:55:48.098Z,11.90
2023-03-20T21:58:50.941Z,11.90
2023-03-20T22:23:43.375Z,11.70
2023-03-20T22:27:07.258Z,11.60
2023-03-20T22:29:54.081Z,11.60
2023-03-20T22:36:19.946Z,11.50
2023-03-20T22:44:59.348Z,11.20
2023-03-20T22:47:47.031Z,11.30
2023-03-20T22:50:33.452Z,11.20
2023-03-20T22:53:20.261Z,11.20
2023-03-20T22:56:07.121Z,11.10
2023-03-20T22:58:54.220Z,11.00
2023-03-20T23:01:40.525Z,11.00
2023-03-20T23:04:29.589Z,10.90
2023-03-20T23:07:15.867Z,10.90
2023-03-20T23:10:02.518Z,10.90
2023-03-20T23:12:47.983Z,10.90
2023-03-20T23:15:33.733Z,10.90
2023-03-20T23:18:19.721Z,10.90
2023-03-20T23:21:06.324Z,10.90
2023-03-20T23:23:52.578Z,10.70
2023-03-20T23:26:38.465Z,10.80
2023-03-20T23:29:24.267Z,10.80
2023-03-20T23:32:10.265Z,10.80
2023-03-20T23:34:56.622Z,10.80
2023-03-20T23:37:42.731Z,10.80
2023-03-20T23:40:28.445Z,10.80
2023-03-20T23:43:14.104Z,10.70
2023-03-20T23:45:59.815Z,10.60
2023-03-20T23:48:46.448Z,10.60
2023-03-20T23:51:32.303Z,10.70
2023-03-20T23:54:18.098Z,10.70
2023-03-20T23:57:04.251Z,10.70
2023-03-20T23:59:49.861Z,10.60
